createdAt,value
2023-03-01T00:02:26.738Z,77.50
2023-03-01T00:04:54.574Z,77.50
2023-03-01T00:07:22.309Z,77.20
2023-03-01T00:09:50.358Z,77.50
2023-03-01T00:12:18.079Z,77.00
2023-03-01T00:14:47.188Z,77.10
2023-03-01T00:17:14.968Z,76.60
2023-03-01T00:19:42.782Z,76.70
2023-03-01T00:22:10.499Z,77.80
2023-03-01T00:24:38.178Z,77.30
2023-03-01T00:27:05.955Z,76.80
2023-03-01T00:29:33.705Z,77.40
2023-03-01T00:32:03.033Z,79.20
2023-03-01T00:34:30.737Z,78.60
2023-03-01T00:37:05.907Z,79.50
2023-03-01T00:39:34.343Z,78.40
2023-03-01T00:42:02.106Z,79.00
2023-03-01T00:44:29.796Z,78.50
2023-03-01T00:46:57.689Z,79.10
2023-03-01T00:49:28.616Z,78.10
2023-03-01T00:51:56.336Z,77.30
2023-03-01T00:54:24.172Z,78.10
2023-03-01T00:56:51.902Z,77.80
2023-03-01T00:59:19.684Z,77.90
2023-03-01T01:01:47.457Z,78.00
2023-03-01T01:04:15.793Z,77.90
2023-03-01T01:06:46.442Z,77.80
2023-03-01T01:09:18.834Z,78.00
2023-03-01T01:11:47.553Z,77.50
2023-03-01T01:14:15.375Z,78.30
2023-03-01T01:16:43.125Z,78.10
2023-03-01T01:19:12.212Z,77.80
2023-03-01T01:21:39.974Z,78.40
2023-03-01T01:24:09.636Z,79.00
2023-03-01T01:26:37.379Z,79.20
2023-03-01T01:29:06.927Z,77.60
2023-03-01T01:31:35.892Z,77.60
2023-03-01T01:34:05.822Z,78.00
2023-03-01T01:36:34.575Z,76.50
2023-03-01T01:39:02.997Z,76.10
2023-03-01T01:41:32.706Z,75.00
2023-03-01T01:44:15.993Z,75.90
2023-03-01T01:46:46.338Z,76.20
2023-03-01T01:49:22.693Z,75.80
2023-03-01T01:51:53.390Z,76.40
2023-03-01T01:54:25.381Z,76.60
2023-03-01T01:56:59.376Z,76.70
2023-03-01T01:59:30.545Z,75.80
2023-03-01T02:02:01.403Z,75.90
2023-03-01T02:04:29.588Z,77.10
2023-03-01T02:07:02.306Z,76.90
2023-03-01T02:09:32.582Z,75.90
2023-03-01T02:12:03.095Z,76.20
2023-03-01T02:14:30.832Z,75.80
2023-03-01T02:16:58.699Z,76.40
2023-03-01T02:19:41.456Z,76.30
2023-03-01T02:22:19.447Z,77.10
2023-03-01T02:24:54.229Z,76.70
2023-03-01T02:27:28.064Z,76.40
2023-03-01T02:29:57.854Z,76.30
2023-03-01T02:32:26.436Z,77.50
2023-03-01T02:34:55.713Z,76.60
2023-03-01T02:37:25.711Z,76.60
2023-03-01T02:39:58.681Z,77.80
2023-03-01T02:42:30.282Z,77.30
2023-03-01T02:44:59.386Z,77.00
2023-03-01T02:47:27.202Z,76.30
2023-03-01T02:49:54.935Z,77.30
2023-03-01T02:52:47.485Z,76.20
2023-03-01T02:55:18.502Z,77.30
2023-03-01T02:57:51.581Z,77.00
2023-03-01T03:00:25.857Z,76.00
2023-03-01T03:02:57.723Z,77.90
2023-03-01T03:05:27.109Z,77.20
2023-03-01T03:07:54.893Z,77.90
2023-03-01T03:10:25.376Z,77.00
2023-03-01T03:12:54.232Z,78.40
2023-03-01T03:15:24.257Z,78.80
2023-03-01T03:17:53.587Z,78.90
2023-03-01T03:20:25.175Z,78.50
2023-03-01T03:22:55.090Z,79.10
2023-03-01T03:25:23.690Z,79.50
2023-03-01T03:27:57.386Z,79.20
2023-03-01T03:30:28.312Z,78.40
2023-03-01T03:32:56.859Z,78.40
2023-03-01T03:35:27.426Z,79.40
2023-03-01T03:38:04.179Z,78.40
2023-03-01T03:40:33.886Z,78.20
2023-03-01T03:43:01.691Z,79.90
2023-03-01T03:45:34.089Z,80.20
2023-03-01T03:48:02.510Z,80.00
2023-03-01T03:50:30.397Z,79.90
2023-03-01T03:52:58.280Z,80.90
2023-03-01T03:55:30.920Z,82.00
2023-03-01T03:58:02.972Z,81.80
2023-03-01T04:00:32.122Z,81.50
2023-03-01T04:02:59.863Z,81.70
2023-03-01T04:05:28.124Z,81.90
2023-03-01T04:08:07.928Z,82.70
2023-03-01T04:10:38.238Z,82.10
2023-03-01T04:13:06.475Z,81.30
2023-03-01T04:15:36.520Z,82.90
2023-03-01T04:18:05.794Z,82.50
2023-03-01T04:20:36.471Z,82.90
2023-03-01T04:23:11.426Z,83.80
2023-03-01T04:25:40.732Z,82.50
2023-03-01T04:28:09.383Z,81.90
2023-03-01T04:30:39.354Z,82.50
2023-03-01T04:33:08.529Z,83.10
2023-03-01T04:35:37.694Z,81.90
2023-03-01T04:38:06.361Z,82.10
2023-03-01T04:40:34.676Z,83.30
2023-03-01T04:43:03.061Z,82.90
2023-03-01T04:45:30.918Z,82.20
2023-03-01T04:48:00.143Z,81.40
2023-03-01T04:50:27.965Z,80.10
2023-03-01T04:52:59.304Z,79.90
2023-03-01T04:55:27.681Z,79.30
2023-03-01T04:57:55.559Z,80.00
2023-03-01T05:00:24.260Z,81.20
2023-03-01T05:02:55.125Z,82.20
2023-03-01T05:05:26.980Z,81.20
2023-03-01T05:07:56.096Z,81.20
2023-03-01T05:10:24.268Z,80.80
2023-03-01T05:12:53.041Z,80.10
2023-03-01T05:15:22.542Z,79.20
2023-03-01T05:17:50.575Z,78.70
2023-03-01T05:20:18.438Z,78.70
2023-03-01T05:22:47.571Z,78.40
2023-03-01T05:25:15.832Z,78.50
2023-03-01T05:27:43.584Z,77.70
2023-03-01T05:30:16.210Z,77.40
2023-03-01T05:32:46.842Z,77.70
2023-03-01T05:35:16.824Z,77.90
2023-03-01T05:37:45.940Z,76.70
2023-03-01T05:40:17.354Z,77.00
2023-03-01T05:42:46.438Z,78.40
2023-03-01T05:45:15.689Z,77.20
2023-03-01T05:47:46.527Z,77.40
2023-03-01T05:50:19.415Z,78.30
2023-03-01T05:52:49.279Z,77.90
2023-03-01T05:55:19.741Z,78.30
2023-03-01T05:57:47.994Z,78.50
2023-03-01T06:00:18.764Z,78.40
2023-03-01T06:02:46.958Z,79.00
2023-03-01T06:05:15.832Z,79.00
2023-03-01T06:07:44.851Z,78.10
2023-03-01T06:10:14.616Z,78.40
2023-03-01T06:12:44.628Z,78.80
2023-03-01T06:15:13.658Z,78.60
2023-03-01T06:17:42.935Z,78.50
2023-03-01T06:20:13.783Z,78.80
2023-03-01T06:22:41.665Z,78.40
2023-03-01T06:25:10.887Z,78.50
2023-03-01T06:27:38.868Z,78.10
2023-03-01T06:30:11.474Z,78.10
2023-03-01T06:32:42.731Z,78.40
2023-03-01T06:35:11.888Z,78.40
2023-03-01T06:37:40.053Z,78.40
2023-03-01T06:40:12.254Z,77.60
2023-03-01T06:42:41.180Z,78.30
2023-03-01T06:45:11.699Z,76.80
2023-03-01T06:47:39.532Z,77.50
2023-03-01T06:50:08.188Z,76.30
2023-03-01T06:52:36.077Z,76.50
2023-03-01T06:55:04.063Z,75.90
2023-03-01T06:57:31.874Z,75.10
2023-03-01T06:59:59.697Z,74.90
2023-03-01T07:02:28.897Z,74.90
2023-03-01T07:04:56.681Z,74.50
2023-03-01T07:07:24.648Z,74.10
2023-03-01T07:09:52.459Z,73.40
2023-03-01T07:12:20.137Z,73.30
2023-03-01T07:14:47.868Z,73.30
2023-03-01T07:17:15.624Z,72.70
2023-03-01T07:19:45.839Z,73.00
2023-03-01T07:22:13.635Z,73.00
2023-03-01T07:24:42.466Z,72.80
2023-03-01T07:27:10.320Z,71.80
2023-03-01T07:29:38.348Z,71.40
2023-03-01T07:32:07.202Z,70.60
2023-03-01T07:34:35.154Z,71.60
2023-03-01T07:37:04.287Z,69.80
2023-03-01T07:39:31.999Z,69.00
2023-03-01T07:41:59.710Z,69.20
2023-03-01T07:44:27.466Z,68.50
2023-03-01T07:46:57.244Z,67.90
2023-03-01T07:49:27.179Z,67.30
2023-03-01T07:51:54.976Z,64.80
2023-03-01T07:54:24.327Z,61.00
2023-03-01T07:56:52.761Z,57.70
2023-03-01T07:59:20.567Z,54.90
2023-03-01T08:01:48.368Z,51.30
2023-03-01T08:04:16.104Z,49.10
2023-03-01T08:06:43.781Z,47.30
2023-03-01T08:09:11.488Z,44.60
2023-03-01T08:11:40.557Z,44.30
2023-03-01T08:14:08.441Z,43.70
2023-03-01T08:16:36.501Z,43.00
2023-03-01T08:19:07.030Z,42.30
2023-03-01T08:21:36.316Z,42.00
2023-03-01T08:24:04.581Z,41.20
2023-03-01T08:26:32.811Z,41.00
2023-03-01T08:29:02.763Z,40.90
2023-03-01T08:31:33.182Z,39.50
2023-03-01T08:34:02.807Z,38.90
2023-03-01T08:36:33.085Z,39.10
2023-03-01T08:39:01.540Z,39.30
2023-03-01T08:41:29.683Z,38.30
2023-03-01T08:43:59.884Z,37.70
2023-03-01T08:46:30.519Z,38.20
2023-03-01T08:48:58.608Z,37.90
2023-03-01T08:51:27.743Z,37.40
2023-03-01T08:53:55.444Z,37.10
2023-03-01T08:56:23.168Z,36.60
2023-03-01T08:58:51.304Z,35.80
2023-03-01T09:01:22.234Z,35.40
2023-03-01T09:03:53.373Z,35.00
2023-03-01T09:06:23.296Z,35.00
2023-03-01T09:08:53.330Z,35.00
2023-03-01T09:11:24.913Z,35.50
2023-03-01T09:13:54.485Z,35.60
2023-03-01T09:16:25.369Z,35.30
2023-03-01T09:18:57.961Z,35.00
2023-03-01T09:21:39.497Z,34.80
2023-03-01T09:24:14.808Z,33.80
2023-03-01T09:26:44.783Z,33.50
2023-03-01T09:29:14.620Z,34.60
2023-03-01T09:31:44.790Z,34.00
2023-03-01T09:34:17.708Z,33.30
2023-03-01T09:36:47.507Z,33.30
2023-03-01T09:39:19.147Z,33.30
2023-03-01T09:41:53.205Z,33.40
2023-03-01T09:44:31.087Z,32.70
2023-03-01T09:47:01.337Z,32.60
2023-03-01T09:49:34.464Z,32.90
2023-03-01T09:52:10.160Z,32.80
2023-03-01T09:54:40.772Z,32.50
2023-03-01T09:57:19.556Z,33.00
2023-03-01T10:00:05.065Z,33.80
2023-03-01T10:02:40.966Z,34.20
2023-03-01T10:05:24.092Z,33.70
2023-03-01T10:08:01.208Z,33.50
2023-03-01T10:10:35.319Z,33.00
2023-03-01T10:13:10.641Z,32.90
2023-03-01T10:15:44.818Z,32.40
2023-03-01T10:18:19.044Z,33.20
2023-03-01T10:20:54.363Z,32.00
2023-03-01T10:23:22.150Z,30.90
2023-03-01T10:26:05.395Z,32.00
2023-03-01T10:28:43.318Z,32.50
2023-03-01T10:31:16.168Z,31.70
2023-03-01T10:33:44.138Z,31.40
2023-03-01T10:36:13.292Z,31.70
2023-03-01T10:38:53.285Z,31.70
2023-03-01T10:41:21.595Z,31.00
2023-03-01T10:43:52.488Z,31.10
2023-03-01T10:46:28.404Z,31.20
2023-03-01T10:49:15.214Z,31.00
2023-03-01T10:51:46.961Z,30.80
2023-03-01T10:54:20.191Z,30.60
2023-03-01T10:56:50.255Z,30.80
2023-03-01T10:59:30.247Z,30.80
2023-03-01T11:02:24.485Z,30.20
2023-03-01T11:05:00.926Z,30.50
2023-03-01T11:07:30.569Z,30.90
2023-03-01T11:09:58.394Z,30.70
2023-03-01T11:12:27.249Z,30.40
2023-03-01T11:14:56.598Z,30.30
2023-03-01T11:17:30.006Z,31.00
2023-03-01T11:20:15.241Z,30.20
2023-03-01T11:22:49.340Z,30.30
2023-03-01T11:25:19.267Z,29.50
2023-03-01T11:27:48.498Z,29.50
2023-03-01T11:30:21.915Z,29.90
2023-03-01T11:32:57.081Z,29.80
2023-03-01T11:35:27.692Z,30.10
2023-03-01T11:38:06.919Z,30.50
2023-03-01T11:40:41.311Z,30.20
2023-03-01T11:43:20.175Z,29.90
2023-03-01T11:46:03.758Z,30.20
2023-03-01T11:48:49.909Z,29.50
2023-03-01T11:51:25.309Z,29.50
2023-03-01T11:54:06.771Z,29.50
2023-03-01T11:56:38.251Z,29.50
2023-03-01T11:59:28.954Z,28.80
2023-03-01T12:02:18.360Z,29.40
2023-03-01T12:05:15.753Z,29.20
2023-03-01T12:07:55.010Z,29.50
2023-03-01T12:10:27.975Z,29.20
2023-03-01T12:13:15.929Z,29.60
2023-03-01T12:15:52.674Z,30.00
2023-03-01T12:18:54.403Z,29.60
2023-03-01T12:21:37.740Z,29.20
2023-03-01T12:24:21.672Z,30.00
2023-03-01T12:27:00.470Z,31.00
2023-03-01T12:29:36.400Z,31.60
2023-03-01T12:32:35.340Z,31.40
2023-03-01T12:35:34.808Z,31.50
2023-03-01T12:38:16.025Z,31.40
2023-03-01T12:41:12.346Z,32.30
2023-03-01T12:43:56.904Z,32.30
2023-03-01T12:46:38.032Z,31.90
2023-03-01T12:49:13.171Z,33.10
2023-03-01T12:51:44.339Z,33.40
2023-03-01T12:54:17.522Z,33.30
2023-03-01T12:56:53.072Z,33.10
2023-03-01T12:59:27.149Z,33.10
2023-03-01T13:01:59.069Z,33.40
2023-03-01T13:04:38.115Z,33.80
2023-03-01T13:07:21.376Z,33.50
2023-03-01T13:10:02.182Z,33.60
2023-03-01T13:13:03.064Z,33.30
2023-03-01T13:15:35.332Z,33.00
2023-03-01T13:18:05.953Z,32.80
2023-03-01T13:20:46.631Z,33.50
2023-03-01T13:23:27.085Z,32.90
2023-03-01T13:26:16.744Z,32.60
2023-03-01T13:28:56.858Z,32.60
2023-03-01T13:32:01.350Z,32.90
2023-03-01T13:34:58.453Z,33.30
2023-03-01T13:37:34.222Z,33.70
2023-03-01T13:40:06.464Z,33.30
2023-03-01T13:42:38.929Z,33.90
2023-03-01T13:45:23.307Z,34.80
2023-03-01T13:47:59.046Z,35.30
2023-03-01T13:50:32.311Z,34.50
2023-03-01T13:53:03.619Z,34.90
2023-03-01T13:55:40.254Z,34.30
2023-03-01T13:58:20.597Z,34.00
2023-03-01T14:00:48.359Z,34.40
2023-03-01T14:03:18.899Z,34.70
2023-03-01T14:06:14.561Z,35.00
2023-03-01T14:08:44.047Z,35.90
2023-03-01T14:11:36.999Z,36.00
2023-03-01T14:14:20.789Z,35.70
2023-03-01T14:16:59.526Z,36.30
2023-03-01T14:19:33.826Z,36.10
2023-03-01T14:22:13.678Z,37.00
2023-03-01T14:24:48.247Z,37.40
2023-03-01T14:27:16.247Z,37.40
2023-03-01T14:29:44.097Z,37.40
2023-03-01T14:32:14.550Z,37.70
2023-03-01T14:34:46.721Z,37.90
2023-03-01T14:37:22.778Z,38.20
2023-03-01T14:39:51.145Z,39.00
2023-03-01T14:42:20.160Z,39.10
2023-03-01T14:44:50.792Z,38.90
2023-03-01T14:47:26.633Z,39.30
2023-03-01T14:49:59.220Z,40.30
2023-03-01T14:52:36.872Z,39.80
2023-03-01T14:55:08.890Z,40.50
2023-03-01T14:57:36.703Z,40.60
2023-03-01T15:00:08.568Z,41.40
2023-03-01T15:02:37.234Z,40.70
2023-03-01T15:05:08.910Z,41.10
2023-03-01T15:07:42.440Z,40.80
2023-03-01T15:10:21.292Z,40.90
2023-03-01T15:12:49.101Z,41.90
2023-03-01T15:15:37.991Z,41.80
2023-03-01T15:18:15.590Z,41.80
2023-03-01T15:20:43.637Z,42.60
2023-03-01T15:23:23.524Z,42.40
2023-03-01T15:25:57.339Z,43.50
2023-03-01T15:28:28.448Z,42.90
2023-03-01T15:31:02.725Z,42.60
2023-03-01T15:33:40.198Z,42.30
2023-03-01T15:36:43.337Z,42.50
2023-03-01T15:39:32.545Z,42.90
2023-03-01T15:42:00.803Z,43.00
2023-03-01T15:44:41.615Z,42.90
2023-03-01T15:47:26.737Z,43.30
2023-03-01T15:49:56.690Z,43.30
2023-03-01T15:52:30.095Z,43.40
2023-03-01T15:55:01.986Z,43.30
2023-03-01T15:57:29.931Z,43.90
2023-03-01T15:59:57.784Z,44.40
2023-03-01T16:02:26.526Z,44.40
2023-03-01T16:04:54.773Z,43.80
2023-03-01T16:07:22.511Z,44.20
2023-03-01T16:09:50.247Z,44.50
2023-03-01T16:12:21.375Z,45.60
2023-03-01T16:14:49.745Z,44.70
2023-03-01T16:17:17.566Z,45.10
2023-03-01T16:19:45.271Z,45.10
2023-03-01T16:22:13.332Z,45.00
2023-03-01T16:24:41.833Z,45.10
2023-03-01T16:27:09.991Z,45.10
2023-03-01T16:29:39.157Z,45.60
2023-03-01T16:32:07.464Z,45.80
2023-03-01T16:34:35.422Z,45.80
2023-03-01T16:37:03.201Z,45.80
2023-03-01T16:39:30.946Z,45.40
2023-03-01T16:42:01.584Z,46.40
2023-03-01T16:44:29.456Z,46.80
2023-03-01T16:46:59.129Z,47.50
2023-03-01T16:49:27.135Z,47.90
2023-03-01T16:51:56.011Z,47.80
2023-03-01T16:54:23.829Z,47.90
2023-03-01T16:56:51.664Z,47.80
2023-03-01T16:59:20.278Z,47.90
2023-03-01T17:01:48.430Z,48.60
2023-03-01T17:04:19.355Z,48.80
2023-03-01T17:06:47.666Z,49.30
2023-03-01T17:09:17.706Z,49.40
2023-03-01T17:11:45.785Z,49.10
2023-03-01T17:14:13.554Z,49.40
2023-03-01T17:16:41.359Z,49.70
2023-03-01T17:19:09.299Z,50.10
2023-03-01T17:21:38.687Z,51.10
2023-03-01T17:24:06.752Z,51.20
2023-03-01T17:26:34.509Z,51.30
2023-03-01T17:29:03.805Z,50.90
2023-03-01T17:31:32.244Z,50.40
2023-03-01T17:34:01.742Z,50.80
2023-03-01T17:36:29.732Z,50.70
2023-03-01T17:38:58.946Z,50.50
2023-03-01T17:41:27.075Z,50.30
2023-03-01T17:43:55.205Z,50.50
2023-03-01T17:46:24.221Z,50.80
2023-03-01T17:48:52.033Z,51.10
2023-03-01T17:51:20.004Z,50.90
2023-03-01T17:53:47.786Z,50.70
2023-03-01T17:56:17.130Z,50.70
2023-03-01T17:58:47.015Z,50.80
2023-03-01T18:01:17.526Z,50.80
2023-03-01T18:03:47.563Z,51.70
2023-03-01T18:06:17.632Z,51.40
2023-03-01T18:08:46.227Z,50.70
2023-03-01T18:11:15.881Z,51.10
2023-03-01T18:13:43.697Z,50.50
2023-03-01T18:16:13.525Z,51.00
2023-03-01T18:18:41.567Z,51.50
2023-03-01T18:21:10.533Z,51.10
2023-03-01T18:23:38.941Z,51.60
2023-03-01T18:26:09.250Z,51.70
2023-03-01T18:28:39.318Z,52.40
2023-03-01T18:31:10.693Z,53.70
2023-03-01T18:33:39.162Z,53.40
2023-03-01T18:36:16.830Z,53.70
2023-03-01T18:38:44.617Z,53.90
2023-03-01T18:41:12.549Z,54.30
2023-03-01T18:43:41.584Z,54.90
2023-03-01T18:46:09.396Z,54.90
2023-03-01T18:48:37.858Z,55.20
2023-03-01T18:51:10.549Z,55.50
2023-03-01T18:53:38.406Z,56.00
2023-03-01T18:56:07.467Z,56.40
2023-03-01T18:58:35.308Z,56.40
2023-03-01T19:01:07.799Z,56.40
2023-03-01T19:03:36.430Z,56.60
2023-03-01T19:06:05.098Z,56.70
2023-03-01T19:08:33.494Z,57.00
2023-03-01T19:11:03.261Z,57.20
2023-03-01T19:13:31.710Z,57.00
2023-03-01T19:16:06.954Z,57.20
2023-03-01T19:18:35.315Z,57.40
2023-03-01T19:21:05.206Z,57.50
2023-03-01T19:23:35.024Z,58.40
2023-03-01T19:26:04.501Z,58.70
2023-03-01T19:28:32.403Z,58.10
2023-03-01T19:31:02.239Z,57.80
2023-03-01T19:33:34.722Z,58.50
2023-03-01T19:36:03.606Z,58.20
2023-03-01T19:38:31.523Z,58.70
2023-03-01T19:40:59.484Z,58.80
2023-03-01T19:43:27.262Z,58.80
2023-03-01T19:45:55.925Z,58.90
2023-03-01T19:48:24.452Z,59.20
2023-03-01T19:50:54.476Z,58.60
2023-03-01T19:53:22.538Z,59.10
2023-03-01T19:55:53.002Z,59.00
2023-03-01T19:58:20.870Z,58.60
2023-03-01T20:00:48.783Z,58.60
2023-03-01T20:03:16.581Z,58.70
2023-03-01T20:05:44.616Z,59.10
2023-03-01T20:08:14.217Z,59.10
2023-03-01T20:10:43.302Z,58.80
2023-03-01T20:13:11.085Z,58.90
2023-03-01T20:15:42.512Z,59.20
2023-03-01T20:18:10.768Z,59.10
2023-03-01T20:20:38.847Z,59.40
2023-03-01T20:23:06.782Z,59.10
2023-03-01T20:25:35.928Z,59.10
2023-03-01T20:28:03.802Z,59.00
2023-03-01T20:30:31.524Z,59.20
2023-03-01T20:32:59.555Z,59.40
2023-03-01T20:35:28.136Z,59.60
2023-03-01T20:37:55.931Z,59.10
2023-03-01T20:40:26.942Z,59.10
2023-03-01T20:42:56.665Z,59.60
2023-03-01T20:45:28.025Z,59.50
2023-03-01T20:47:56.761Z,60.10
2023-03-01T20:50:24.577Z,59.70
2023-03-01T20:52:52.388Z,60.00
2023-03-01T20:55:20.475Z,60.00
2023-03-01T20:57:48.229Z,59.70
2023-03-01T21:00:18.108Z,59.50
2023-03-01T21:02:45.834Z,59.80
2023-03-01T21:05:13.738Z,59.60
2023-03-01T21:07:42.745Z,60.60
2023-03-01T21:10:11.956Z,60.00
2023-03-01T21:12:39.821Z,60.80
2023-03-01T21:15:09.713Z,60.90
2023-03-01T21:17:40.382Z,60.90
2023-03-01T21:20:09.484Z,61.40
2023-03-01T21:22:37.251Z,61.70
2023-03-01T21:25:06.121Z,61.60
2023-03-01T21:27:37.496Z,62.60
2023-03-01T21:30:06.201Z,62.00
2023-03-01T21:32:34.152Z,62.60
2023-03-01T21:35:03.681Z,63.30
2023-03-01T21:37:31.381Z,63.90
2023-03-01T21:39:59.249Z,64.80
2023-03-01T21:42:27.132Z,64.00
2023-03-01T21:44:54.970Z,64.10
2023-03-01T21:47:22.790Z,63.70
2023-03-01T21:49:50.678Z,64.10
2023-03-01T21:52:19.966Z,63.40
2023-03-01T21:54:51.072Z,63.60
2023-03-01T21:57:18.836Z,62.70
2023-03-01T21:59:46.773Z,62.70
2023-03-01T22:02:15.704Z,63.20
2023-03-01T22:04:43.441Z,64.40
2023-03-01T22:07:11.129Z,64.90
2023-03-01T22:09:40.438Z,64.30
2023-03-01T22:12:08.487Z,64.70
2023-03-01T22:14:36.456Z,65.70
2023-03-01T22:17:04.269Z,66.50
2023-03-01T22:19:32.204Z,66.70
2023-03-01T22:22:00.111Z,66.20
2023-03-01T22:24:28.594Z,66.30
2023-03-01T22:26:57.823Z,66.10
2023-03-01T22:29:28.838Z,66.10
2023-03-01T22:31:57.957Z,66.70
2023-03-01T22:34:26.496Z,67.50
2023-03-01T22:36:54.426Z,67.80
2023-03-01T22:39:22.706Z,67.80
2023-03-01T22:41:51.472Z,67.90
2023-03-01T22:44:22.704Z,67.20
2023-03-01T22:46:51.219Z,66.30
2023-03-01T22:49:19.740Z,66.50
2023-03-01T22:51:48.073Z,66.90
2023-03-01T22:54:17.723Z,67.10
2023-03-01T22:56:46.426Z,68.40
2023-03-01T22:59:16.235Z,69.20
2023-03-01T23:01:47.625Z,69.00
2023-03-01T23:04:15.834Z,69.30
2023-03-01T23:06:51.598Z,68.40
2023-03-01T23:09:20.786Z,68.00
2023-03-01T23:11:49.137Z,68.60
2023-03-01T23:14:17.087Z,68.00
2023-03-01T23:16:46.469Z,68.00
2023-03-01T23:19:16.362Z,67.50
2023-03-01T23:21:47.405Z,67.10
2023-03-01T23:24:15.636Z,67.00
2023-03-01T23:26:45.573Z,68.10
2023-03-01T23:29:13.800Z,68.30
2023-03-01T23:31:41.602Z,68.20
2023-03-01T23:34:10.758Z,68.30
2023-03-01T23:36:39.027Z,69.10
2023-03-01T23:39:07.533Z,70.20
2023-03-01T23:41:36.170Z,69.00
2023-03-01T23:44:05.664Z,68.60
2023-03-01T23:46:36.076Z,68.80
2023-03-01T23:49:04.527Z,68.70
2023-03-01T23:51:33.619Z,69.70
2023-03-01T23:54:05.305Z,69.90
2023-03-01T23:56:35.174Z,69.70
2023-03-01T23:59:05.966Z,69.50
